createdAt,value
2022-09-06T00:00:15.698Z,21.84
2022-09-06T00:03:02.519Z,21.80
2022-09-06T00:05:51.861Z,21.78
2022-09-06T00:08:38.699Z,21.73
2022-09-06T00:11:25.582Z,21.69
2022-09-06T00:14:12.369Z,21.65
2022-09-06T00:16:59.181Z,21.61
2022-09-06T00:19:45.946Z,21.58
2022-09-06T00:22:32.671Z,21.53
2022-09-06T00:25:19.507Z,21.50
2022-09-06T00:28:06.349Z,21.45
2022-09-06T00:30:55.801Z,21.42
2022-09-06T00:33:42.708Z,21.38
2022-09-06T00:36:29.400Z,21.33
2022-09-06T00:39:19.344Z,21.30
2022-09-06T00:42:10.016Z,21.25
2022-09-06T00:44:56.767Z,21.22
2022-09-06T00:47:43.528Z,21.18
2022-09-06T00:50:30.726Z,21.14
2022-09-06T00:53:17.901Z,21.10
2022-09-06T00:56:04.705Z,21.06
2022-09-06T00:58:51.399Z,21.02
2022-09-06T01:01:38.225Z,20.99
2022-09-06T01:04:25.374Z,20.95
2022-09-06T01:07:33.911Z,20.90
2022-09-06T01:10:24.755Z,20.86
2022-09-06T01:13:17.639Z,20.82
2022-09-06T01:16:23.289Z,20.76
2022-09-06T01:19:38.352Z,20.73
2022-09-06T01:22:45.130Z,20.68
2022-09-06T01:25:34.866Z,20.64
2022-09-06T01:28:21.575Z,20.60
2022-09-06T01:31:08.678Z,20.58
2022-09-06T01:34:07.801Z,20.53
2022-09-06T01:37:10.269Z,20.47
2022-09-06T01:39:57.432Z,20.43
2022-09-06T01:42:44.459Z,20.41
2022-09-06T01:45:34.185Z,20.36
2022-09-06T01:48:24.694Z,20.33
2022-09-06T01:51:15.268Z,20.30
2022-09-06T01:54:02.007Z,20.25
2022-09-06T01:57:02.285Z,20.22
2022-09-06T01:59:48.997Z,20.18
2022-09-06T02:02:47.316Z,20.15
2022-09-06T02:05:52.800Z,20.12
2022-09-06T02:08:41.113Z,20.08
2022-09-06T02:11:28.287Z,20.04
2022-09-06T02:14:16.966Z,20.02
2022-09-06T02:17:05.773Z,19.98
2022-09-06T02:19:54.009Z,19.94
2022-09-06T02:22:41.874Z,19.90
2022-09-06T02:25:30.249Z,19.88
2022-09-06T02:28:16.945Z,19.83
2022-09-06T02:31:04.519Z,19.80
2022-09-06T02:33:51.346Z,19.76
2022-09-06T02:36:38.070Z,19.73
2022-09-06T02:39:24.997Z,19.69
2022-09-06T02:42:12.593Z,19.66
2022-09-06T02:44:59.295Z,19.61
2022-09-06T02:47:46.078Z,19.57
2022-09-06T02:50:32.786Z,19.55
2022-09-06T02:53:19.557Z,19.52
2022-09-06T02:56:06.357Z,19.49
2022-09-06T02:58:53.114Z,19.45
2022-09-06T03:01:39.943Z,19.43
2022-09-06T03:04:26.735Z,19.39
2022-09-06T03:07:13.499Z,19.35
2022-09-06T03:10:00.269Z,19.32
2022-09-06T03:12:46.995Z,19.28
2022-09-06T03:15:33.704Z,19.23
2022-09-06T03:18:20.575Z,19.20
2022-09-06T03:21:07.391Z,19.17
2022-09-06T03:23:54.777Z,19.14
2022-09-06T03:26:41.494Z,19.11
2022-09-06T03:29:28.194Z,19.08
2022-09-06T03:32:14.922Z,19.05
2022-09-06T03:35:01.794Z,19.00
2022-09-06T03:37:48.489Z,18.97
2022-09-06T03:40:35.253Z,18.95
2022-09-06T03:43:23.043Z,18.91
2022-09-06T03:46:09.839Z,18.86
2022-09-06T03:48:57.131Z,18.84
2022-09-06T03:51:43.827Z,18.79
2022-09-06T03:54:30.865Z,18.78
2022-09-06T03:57:17.628Z,18.75
2022-09-06T04:00:04.449Z,18.70
2022-09-06T04:02:51.160Z,18.68
2022-09-06T04:05:37.900Z,18.65
2022-09-06T04:08:24.789Z,18.61
2022-09-06T04:11:11.603Z,18.58
2022-09-06T04:13:58.299Z,18.55
2022-09-06T04:16:45.040Z,18.52
2022-09-06T04:19:31.831Z,18.49
2022-09-06T04:22:18.531Z,18.47
2022-09-06T04:25:05.591Z,18.45
2022-09-06T04:27:52.324Z,18.40
2022-09-06T04:30:38.997Z,18.37
2022-09-06T04:33:26.337Z,18.35
2022-09-06T04:36:13.319Z,18.32
2022-09-06T04:39:00.006Z,18.30
2022-09-06T04:41:46.695Z,18.27
2022-09-06T04:44:33.442Z,18.23
2022-09-06T04:47:20.170Z,18.21
2022-09-06T04:50:07.128Z,18.19
2022-09-06T04:52:53.920Z,18.15
2022-09-06T04:55:40.620Z,18.13
2022-09-06T04:58:27.392Z,18.10
2022-09-06T05:01:14.359Z,18.08
2022-09-06T05:04:01.332Z,18.06
2022-09-06T05:06:48.060Z,18.02
2022-09-06T05:09:34.823Z,18.00
2022-09-06T05:12:21.552Z,17.96
2022-09-06T05:15:08.586Z,17.95
2022-09-06T05:18:01.120Z,17.92
2022-09-06T05:20:56.862Z,17.90
2022-09-06T05:23:43.600Z,17.89
2022-09-06T05:26:30.309Z,17.87
2022-09-06T05:29:17.006Z,17.85
2022-09-06T05:32:03.788Z,17.83
2022-09-06T05:34:50.534Z,17.81
2022-09-06T05:37:37.233Z,17.78
2022-09-06T05:40:24.034Z,17.77
2022-09-06T05:43:12.524Z,17.75
2022-09-06T05:45:59.268Z,17.73
2022-09-06T05:48:51.733Z,17.71
2022-09-06T05:51:38.709Z,17.70
2022-09-06T05:54:25.428Z,17.70
2022-09-06T05:57:12.135Z,17.69
2022-09-06T05:59:58.871Z,17.67
2022-09-06T06:02:49.187Z,17.66
2022-09-06T06:05:35.927Z,17.65
2022-09-06T06:08:22.699Z,17.64
2022-09-06T06:11:09.454Z,17.62
2022-09-06T06:13:56.196Z,17.61
2022-09-06T06:16:43.038Z,17.59
2022-09-06T06:19:29.836Z,17.58
2022-09-06T06:22:16.547Z,17.57
2022-09-06T06:25:03.339Z,17.56
2022-09-06T06:27:50.052Z,17.56
2022-09-06T06:30:42.597Z,17.57
2022-09-06T06:33:29.406Z,17.61
2022-09-06T06:36:16.059Z,17.64
2022-09-06T06:39:04.242Z,17.66
2022-09-06T06:41:50.964Z,17.69
2022-09-06T06:44:37.693Z,17.70
2022-09-06T06:47:24.403Z,17.72
2022-09-06T06:50:16.697Z,17.75
2022-09-06T06:53:03.530Z,17.80
2022-09-06T06:55:50.215Z,17.85
2022-09-06T06:58:39.347Z,17.90
2022-09-06T07:01:26.672Z,17.92
2022-09-06T07:04:14.258Z,17.98
2022-09-06T07:13:18.978Z,18.22
2022-09-06T07:16:13.564Z,18.32
2022-09-06T07:19:00.638Z,18.40
2022-09-06T07:21:47.464Z,18.48
2022-09-06T07:24:34.258Z,18.55
2022-09-06T07:30:28.252Z,18.76
2022-09-06T07:33:15.066Z,18.88
2022-09-06T07:36:02.416Z,18.96
2022-09-06T07:38:58.175Z,19.06
2022-09-06T07:41:44.889Z,19.12
2022-09-06T07:44:35.364Z,19.17
2022-09-06T07:53:36.536Z,19.35
2022-09-06T07:56:26.809Z,19.36
2022-09-06T07:59:18.364Z,19.36
2022-09-06T08:02:05.324Z,19.38
2022-09-06T08:04:58.133Z,19.40
2022-09-06T08:07:44.867Z,19.46
2022-09-06T08:10:31.714Z,19.52
2022-09-06T08:13:19.713Z,19.57
2022-09-06T08:16:12.923Z,19.63
2022-09-06T08:19:00.773Z,19.67
2022-09-06T08:21:47.497Z,19.72
2022-09-06T08:24:35.793Z,19.77
2022-09-06T08:27:22.530Z,19.81
2022-09-06T08:30:10.817Z,19.89
2022-09-06T08:32:57.829Z,20.01
2022-09-06T08:35:45.858Z,20.14
2022-09-06T08:38:33.367Z,20.31
2022-09-06T08:41:25.055Z,20.43
2022-09-06T08:47:20.291Z,20.73
2022-09-06T08:50:07.177Z,20.88
2022-09-06T08:53:16.105Z,21.00
2022-09-06T08:56:13.441Z,21.09
2022-09-06T08:59:07.270Z,21.20
2022-09-06T09:02:10.280Z,21.28
2022-09-06T09:04:59.765Z,21.37
2022-09-06T09:07:51.331Z,21.46
2022-09-06T09:10:53.781Z,21.54
2022-09-06T09:13:43.639Z,21.65
2022-09-06T09:16:30.485Z,21.72
2022-09-06T09:19:17.497Z,21.80
2022-09-06T09:22:04.323Z,21.89
2022-09-06T09:24:52.800Z,22.00
2022-09-06T09:27:39.821Z,22.11
2022-09-06T09:33:35.447Z,22.25
2022-09-06T09:36:22.127Z,22.31
2022-09-06T09:39:09.650Z,22.39
2022-09-06T09:41:56.374Z,22.49
2022-09-06T09:44:43.412Z,22.57
2022-09-06T09:47:30.854Z,22.66
2022-09-06T09:50:22.350Z,22.74
2022-09-06T09:53:13.675Z,22.82
2022-09-06T09:56:00.352Z,22.92
2022-09-06T09:58:47.133Z,22.99
2022-09-06T10:01:40.940Z,23.07
2022-09-06T10:04:47.209Z,23.16
2022-09-06T10:07:33.937Z,23.26
2022-09-06T10:10:25.010Z,23.35
2022-09-06T10:13:25.344Z,23.42
2022-09-06T10:16:12.141Z,23.53
2022-09-06T10:18:59.045Z,23.64
2022-09-06T10:21:45.846Z,23.69
2022-09-06T10:24:38.422Z,23.78
2022-09-06T10:27:26.225Z,23.85
2022-09-06T10:30:14.481Z,23.94
2022-09-06T10:33:10.412Z,24.04
2022-09-06T10:36:03.824Z,24.13
2022-09-06T10:38:50.606Z,24.21
2022-09-06T10:41:48.010Z,24.29
2022-09-06T10:44:42.162Z,24.36
2022-09-06T10:47:32.206Z,24.45
2022-09-06T10:50:39.810Z,24.52
2022-09-06T10:53:36.746Z,24.64
2022-09-06T10:56:43.259Z,24.76
2022-09-06T10:59:40.218Z,24.86
2022-09-06T11:02:39.246Z,24.96
2022-09-06T11:05:43.380Z,25.06
2022-09-06T11:08:53.395Z,25.16
2022-09-06T11:11:45.043Z,25.26
2022-09-06T11:14:31.814Z,25.38
2022-09-06T11:17:23.450Z,25.46
2022-09-06T11:20:15.380Z,25.56
2022-09-06T11:23:10.387Z,25.62
2022-09-06T11:26:06.295Z,25.70
2022-09-06T11:28:53.932Z,25.79
2022-09-06T11:35:11.090Z,26.04
2022-09-06T11:38:17.698Z,26.10
2022-09-06T11:41:05.593Z,26.17
2022-09-06T11:43:53.222Z,26.25
2022-09-06T11:46:41.156Z,26.33
2022-09-06T11:49:34.937Z,26.41
2022-09-06T11:52:40.332Z,26.47
2022-09-06T11:55:37.501Z,26.59
2022-09-06T11:58:27.314Z,26.67
2022-09-06T12:01:16.690Z,26.71
2022-09-06T12:04:05.397Z,26.76
2022-09-06T12:07:12.294Z,26.82
2022-09-06T12:10:02.555Z,26.93
2022-09-06T12:12:50.813Z,27.04
2022-09-06T12:15:52.528Z,27.13
2022-09-06T12:18:48.757Z,27.23
2022-09-06T12:21:37.382Z,27.34
2022-09-06T12:24:33.391Z,27.46
2022-09-06T12:27:23.622Z,27.57
2022-09-06T12:30:12.103Z,27.64
2022-09-06T12:32:58.840Z,27.70
2022-09-06T12:36:03.363Z,27.77
2022-09-06T12:39:03.199Z,27.79
2022-09-06T12:41:51.054Z,27.80
2022-09-06T12:44:38.957Z,27.81
2022-09-06T12:47:28.000Z,27.82
2022-09-06T12:50:21.122Z,27.86
2022-09-06T12:53:24.954Z,27.89
2022-09-06T12:56:15.889Z,27.96
2022-09-06T12:59:14.182Z,28.01
2022-09-06T13:02:05.778Z,28.09
2022-09-06T13:05:11.739Z,28.16
2022-09-06T13:08:02.222Z,28.19
2022-09-06T13:10:48.893Z,28.21
2022-09-06T13:13:42.862Z,28.22
2022-09-06T13:16:37.176Z,28.25
2022-09-06T13:19:42.205Z,28.29
2022-09-06T13:22:43.346Z,28.37
2022-09-06T13:25:30.154Z,28.43
2022-09-06T13:28:30.318Z,28.47
2022-09-06T13:34:32.389Z,28.53
2022-09-06T13:37:34.896Z,28.52
2022-09-06T13:41:07.125Z,28.54
2022-09-06T13:44:06.677Z,28.59
2022-09-06T13:46:57.084Z,28.65
2022-09-06T13:49:45.530Z,28.70
2022-09-06T13:52:32.393Z,28.72
2022-09-06T13:55:21.901Z,28.73
2022-09-06T13:58:09.117Z,28.74
2022-09-06T14:00:55.812Z,28.79
2022-09-06T14:03:45.226Z,28.83
2022-09-06T14:06:36.165Z,28.84
2022-09-06T14:09:36.959Z,28.83
2022-09-06T14:12:23.684Z,28.85
2022-09-06T14:15:10.369Z,28.88
2022-09-06T14:17:57.077Z,28.91
2022-09-06T14:20:50.610Z,28.93
2022-09-06T14:23:37.332Z,28.94
2022-09-06T14:26:24.172Z,28.97
2022-09-06T14:29:10.875Z,29.00
2022-09-06T14:31:57.562Z,29.00
2022-09-06T14:34:44.644Z,29.02
2022-09-06T14:37:34.810Z,29.04
2022-09-06T14:40:21.517Z,29.04
2022-09-06T14:43:09.627Z,29.02
2022-09-06T14:46:05.058Z,29.02
2022-09-06T14:49:01.679Z,29.00
2022-09-06T14:51:48.551Z,29.00
2022-09-06T14:54:35.261Z,28.98
2022-09-06T14:57:24.323Z,28.95
2022-09-06T15:00:11.736Z,28.91
2022-09-06T15:02:58.656Z,28.89
2022-09-06T15:05:45.493Z,28.88
2022-09-06T15:08:32.331Z,28.85
2022-09-06T15:11:39.376Z,28.83
2022-09-06T15:14:27.102Z,28.79
2022-09-06T15:17:13.862Z,28.81
2022-09-06T15:20:00.651Z,28.82
2022-09-06T15:22:48.134Z,28.83
2022-09-06T15:25:35.206Z,28.82
2022-09-06T15:28:21.967Z,28.80
2022-09-06T15:31:08.742Z,28.80
2022-09-06T15:33:55.721Z,28.79
2022-09-06T15:36:42.400Z,28.80
2022-09-06T15:39:29.186Z,28.78
2022-09-06T15:42:15.909Z,28.78
2022-09-06T15:45:02.811Z,28.75
2022-09-06T15:47:49.815Z,28.73
2022-09-06T15:50:50.707Z,28.70
2022-09-06T15:53:38.197Z,28.68
2022-09-06T15:56:25.001Z,28.67
2022-09-06T15:59:11.934Z,28.66
2022-09-06T16:01:58.635Z,28.66
2022-09-06T16:04:45.745Z,28.65
2022-09-06T16:07:32.441Z,28.63
2022-09-06T16:10:19.162Z,28.61
2022-09-06T16:13:05.861Z,28.60
2022-09-06T16:16:38.447Z,28.58
2022-09-06T16:19:28.308Z,28.53
2022-09-06T16:22:15.074Z,28.45
2022-09-06T16:25:01.783Z,28.41
2022-09-06T16:27:48.479Z,28.38
2022-09-06T16:30:35.330Z,28.38
2022-09-06T16:33:22.025Z,28.33
2022-09-06T16:36:11.745Z,28.30
2022-09-06T16:38:58.714Z,28.25
2022-09-06T16:41:46.140Z,28.23
2022-09-06T16:44:32.866Z,28.17
2022-09-06T16:47:19.565Z,28.11
2022-09-06T16:50:06.417Z,28.04
2022-09-06T16:52:53.108Z,27.99
2022-09-06T16:55:39.812Z,27.94
2022-09-06T16:58:26.605Z,27.89
2022-09-06T17:01:13.373Z,27.87
2022-09-06T17:04:01.710Z,27.84
2022-09-06T17:06:48.407Z,27.82
2022-09-06T17:09:35.303Z,27.80
2022-09-06T17:12:22.202Z,27.78
2022-09-06T17:15:11.498Z,27.75
2022-09-06T17:19:02.408Z,27.74
2022-09-06T17:21:38.938Z,27.73
2022-09-06T17:32:05.195Z,27.67
2022-09-06T17:36:05.746Z,27.65
2022-09-06T17:39:06.193Z,27.62
2022-09-06T17:42:00.109Z,27.60
2022-09-06T17:45:12.761Z,27.57
2022-09-06T17:48:20.364Z,27.52
2022-09-06T17:51:27.428Z,27.50
2022-09-06T17:54:33.855Z,27.47
2022-09-06T18:00:58.546Z,27.39
2022-09-06T18:07:52.596Z,27.31
2022-09-06T18:11:39.499Z,27.26
2022-09-06T18:25:36.428Z,27.06
2022-09-06T18:32:02.735Z,26.97
2022-09-06T18:39:33.120Z,26.86
2022-09-06T18:51:09.458Z,26.73
2022-09-06T18:52:55.806Z,26.69
2022-09-06T18:55:43.161Z,26.66
2022-09-06T19:14:02.676Z,26.38
2022-09-06T19:17:06.400Z,26.33
2022-09-06T19:20:19.519Z,26.28
2022-09-06T19:23:06.528Z,26.25
2022-09-06T19:25:57.840Z,26.22
2022-09-06T19:29:04.936Z,26.16
2022-09-06T19:31:54.295Z,26.12
2022-09-06T19:34:43.286Z,26.09
2022-09-06T19:37:38.638Z,26.05
2022-09-06T19:40:27.983Z,26.02
2022-09-06T19:43:17.279Z,25.98
2022-09-06T19:46:04.824Z,25.95
2022-09-06T19:49:02.442Z,25.89
2022-09-06T19:52:01.777Z,25.85
2022-09-06T19:54:48.799Z,25.78
2022-09-06T19:57:35.734Z,25.74
2022-09-06T20:00:22.655Z,25.70
2022-09-06T20:03:12.882Z,25.66
2022-09-06T20:06:02.080Z,25.61
2022-09-06T20:08:51.961Z,25.58
2022-09-06T20:11:47.065Z,25.52
2022-09-06T20:14:35.020Z,25.47
2022-09-06T20:17:33.753Z,25.43
2022-09-06T20:20:24.544Z,25.37
2022-09-06T20:23:11.789Z,25.31
2022-09-06T20:26:00.808Z,25.27
2022-09-06T20:28:47.845Z,25.23
2022-09-06T20:31:35.643Z,25.18
2022-09-06T20:34:22.837Z,25.14
2022-09-06T20:37:15.078Z,25.10
2022-09-06T20:40:01.937Z,25.06
2022-09-06T20:42:48.757Z,25.01
2022-09-06T20:45:35.527Z,24.98
2022-09-06T20:48:22.400Z,24.93
2022-09-06T20:51:10.391Z,24.90
2022-09-06T20:53:57.804Z,24.87
2022-09-06T20:56:51.423Z,24.82
2022-09-06T20:59:38.205Z,24.78
2022-09-06T21:02:25.303Z,24.76
2022-09-06T21:05:12.369Z,24.71
2022-09-06T21:07:59.335Z,24.66
2022-09-06T21:10:48.797Z,24.63
2022-09-06T21:13:36.182Z,24.59
2022-09-06T21:16:25.113Z,24.56
2022-09-06T21:19:12.297Z,24.52
2022-09-06T21:21:59.075Z,24.48
2022-09-06T21:24:45.928Z,24.45
2022-09-06T21:27:35.771Z,24.40
2022-09-06T21:30:25.029Z,24.35
2022-09-06T21:33:35.290Z,24.32
2022-09-06T21:36:27.672Z,24.27
2022-09-06T21:39:24.570Z,24.23
2022-09-06T21:42:16.322Z,24.18
2022-09-06T21:45:03.269Z,24.14
2022-09-06T21:48:04.961Z,24.10
2022-09-06T21:55:26.791Z,23.97
2022-09-06T21:58:15.629Z,23.94
2022-09-06T22:22:30.261Z,23.58
2022-09-06T23:00:49.710Z,23.03
2022-09-06T23:10:50.931Z,22.87
2022-09-06T23:14:04.552Z,22.82
2022-09-06T23:17:20.543Z,22.76
2022-09-06T23:23:39.921Z,22.67
2022-09-06T23:27:27.597Z,22.61
2022-09-06T23:30:04.585Z,22.55
2022-09-06T23:33:15.634Z,22.51
2022-09-06T23:39:45.178Z,22.42
2022-09-06T23:42:38.971Z,22.37
2022-09-06T23:45:31.077Z,22.32
2022-09-06T23:48:36.314Z,22.28
2022-09-06T23:51:40.937Z,22.24
2022-09-06T23:54:57.332Z,22.19
2022-09-06T23:58:46.388Z,22.16
